sensor_id;sensor_type;location;lat;lon;timestamp;pressure;altitude;pressure_sealevel;temperature;humidity
81151;BME280;70629;-26.026;27.976;2023-08-31T00:00:22;86957.53;;;10.39;61.96
81151;BME280;70629;-26.026;27.976;2023-08-31T00:01:58;86958.41;;;10.55;61.01
81151;BME280;70629;-26.026;27.976;2023-08-31T00:03:33;86961.25;;;10.45;60.48
81151;BME280;70629;-26.026;27.976;2023-08-31T00:05:08;86958.78;;;10.49;60.92
81151;BME280;70629;-26.026;27.976;2023-08-31T00:06:43;86959.13;;;10.55;60.95
81151;BME280;70629;-26.026;27.976;2023-08-31T00:08:21;86956.09;;;10.49;60.78
81151;BME280;70629;-26.026;27.976;2023-08-31T00:09:56;86947.94;;;10.36;61.38
81151;BME280;70629;-26.026;27.976;2023-08-31T00:11:33;86950.28;;;10.18;61.69
81151;BME280;70629;-26.026;27.976;2023-08-31T00:13:07;86949.69;;;10.31;61.45
81151;BME280;70629;-26.026;27.976;2023-08-31T00:14:43;86947.56;;;10.41;60.52
81151;BME280;70629;-26.026;27.976;2023-08-31T00:16:24;86948.75;;;10.38;61.30
81151;BME280;70629;-26.026;27.976;2023-08-31T00:18:03;86947.94;;;10.36;61.55
81151;BME280;70629;-26.026;27.976;2023-08-31T00:19:38;86952.00;;;10.48;60.74
81151;BME280;70629;-26.026;27.976;2023-08-31T00:21:13;86946.72;;;10.50;60.23
81151;BME280;70629;-26.026;27.976;2023-08-31T00:22:48;86948.19;;;10.28;61.22
81151;BME280;70629;-26.026;27.976;2023-08-31T00:24:23;86947.47;;;10.39;60.39
81151;BME280;70629;-26.026;27.976;2023-08-31T00:26:04;86946.63;;;10.37;60.57
81151;BME280;70629;-26.026;27.976;2023-08-31T00:27:39;86945.63;;;10.30;61.22
81151;BME280;70629;-26.026;27.976;2023-08-31T00:29:15;86955.06;;;10.31;60.75
81151;BME280;70629;-26.026;27.976;2023-08-31T00:30:51;86945.75;;;10.21;61.12
81151;BME280;70629;-26.026;27.976;2023-08-31T00:32:26;86942.94;;;10.30;60.66
81151;BME280;70629;-26.026;27.976;2023-08-31T00:34:01;86950.47;;;10.45;60.20
81151;BME280;70629;-26.026;27.976;2023-08-31T00:35:38;86943.50;;;10.17;60.95
81151;BME280;70629;-26.026;27.976;2023-08-31T00:37:17;86946.28;;;10.42;60.97
81151;BME280;70629;-26.026;27.976;2023-08-31T00:38:52;86942.81;;;10.17;61.26
81151;BME280;70629;-26.026;27.976;2023-08-31T00:40:27;86940.94;;;10.19;60.25
81151;BME280;70629;-26.026;27.976;2023-08-31T00:42:14;86942.19;;;10.41;60.20
81151;BME280;70629;-26.026;27.976;2023-08-31T00:43:49;86935.88;;;10.37;60.22
81151;BME280;70629;-26.026;27.976;2023-08-31T00:45:24;86937.56;;;10.19;61.20
81151;BME280;70629;-26.026;27.976;2023-08-31T00:47:00;86925.75;;;10.12;60.60
81151;BME280;70629;-26.026;27.976;2023-08-31T00:48:36;86931.69;;;9.99;61.04
81151;BME280;70629;-26.026;27.976;2023-08-31T00:50:12;86934.28;;;10.20;61.11
81151;BME280;70629;-26.026;27.976;2023-08-31T00:51:46;86932.88;;;10.31;60.43
81151;BME280;70629;-26.026;27.976;2023-08-31T00:53:25;86933.69;;;10.33;60.79
81151;BME280;70629;-26.026;27.976;2023-08-31T00:55:00;86933.56;;;10.08;60.85
81151;BME280;70629;-26.026;27.976;2023-08-31T00:56:39;86922.69;;;10.29;60.91
81151;BME280;70629;-26.026;27.976;2023-08-31T00:58:14;86924.91;;;10.33;60.04
81151;BME280;70629;-26.026;27.976;2023-08-31T00:59:49;86921.44;;;10.07;61.12
81151;BME280;70629;-26.026;27.976;2023-08-31T01:01:37;86925.16;;;10.13;61.07
81151;BME280;70629;-26.026;27.976;2023-08-31T01:03:25;86920.84;;;10.20;60.75
81151;BME280;70629;-26.026;27.976;2023-08-31T01:11:01;86922.25;;;9.98;61.88
81151;BME280;70629;-26.026;27.976;2023-08-31T01:12:57;86919.19;;;10.27;61.64
81151;BME280;70629;-26.026;27.976;2023-08-31T01:14:44;86917.81;;;9.91;61.75
81151;BME280;70629;-26.026;27.976;2023-08-31T01:16:21;86913.13;;;9.68;61.58
81151;BME280;70629;-26.026;27.976;2023-08-31T01:18:00;86913.75;;;8.99;64.18
81151;BME280;70629;-26.026;27.976;2023-08-31T01:21:49;86913.94;;;9.36;62.53
81151;BME280;70629;-26.026;27.976;2023-08-31T01:23:30;86919.75;;;8.88;64.31
81151;BME280;70629;-26.026;27.976;2023-08-31T01:25:09;86911.78;;;8.78;65.42
81151;BME280;70629;-26.026;27.976;2023-08-31T01:26:45;86915.09;;;8.88;64.79
81151;BME280;70629;-26.026;27.976;2023-08-31T01:28:21;86910.09;;;8.94;64.64
81151;BME280;70629;-26.026;27.976;2023-08-31T01:29:55;86902.59;;;9.37;63.72
81151;BME280;70629;-26.026;27.976;2023-08-31T01:31:30;86900.75;;;9.51;62.46
81151;BME280;70629;-26.026;27.976;2023-08-31T01:33:05;86896.63;;;9.15;63.95
81151;BME280;70629;-26.026;27.976;2023-08-31T01:34:40;86894.38;;;9.00;64.17
81151;BME280;70629;-26.026;27.976;2023-08-31T01:36:33;86903.16;;;9.12;63.76
81151;BME280;70629;-26.026;27.976;2023-08-31T01:38:10;86902.53;;;9.02;64.17
81151;BME280;70629;-26.026;27.976;2023-08-31T01:40:37;86903.41;;;8.84;64.81
81151;BME280;70629;-26.026;27.976;2023-08-31T01:42:15;86901.75;;;9.11;64.44
81151;BME280;70629;-26.026;27.976;2023-08-31T01:43:51;86893.75;;;9.46;63.48
81151;BME280;70629;-26.026;27.976;2023-08-31T01:45:27;86890.59;;;9.61;63.30
81151;BME280;70629;-26.026;27.976;2023-08-31T01:47:04;86890.00;;;9.40;63.34
81151;BME280;70629;-26.026;27.976;2023-08-31T01:48:40;86884.28;;;9.22;63.44
81151;BME280;70629;-26.026;27.976;2023-08-31T01:50:15;86890.50;;;8.92;64.53
81151;BME280;70629;-26.026;27.976;2023-08-31T01:51:50;86882.88;;;8.76;64.70
81151;BME280;70629;-26.026;27.976;2023-08-31T01:53:25;86878.81;;;8.43;65.99
81151;BME280;70629;-26.026;27.976;2023-08-31T01:55:00;86884.50;;;8.70;65.03
81151;BME280;70629;-26.026;27.976;2023-08-31T01:56:35;86879.00;;;8.68;64.56
81151;BME280;70629;-26.026;27.976;2023-08-31T01:58:09;86876.84;;;8.88;64.48
81151;BME280;70629;-26.026;27.976;2023-08-31T01:59:44;86875.59;;;9.00;63.79
81151;BME280;70629;-26.026;27.976;2023-08-31T02:01:19;86874.34;;;9.24;63.01
81151;BME280;70629;-26.026;27.976;2023-08-31T02:02:54;86871.72;;;8.92;64.44
81151;BME280;70629;-26.026;27.976;2023-08-31T02:04:29;86876.19;;;9.10;64.37
81151;BME280;70629;-26.026;27.976;2023-08-31T02:06:05;86869.94;;;9.41;63.94
81151;BME280;70629;-26.026;27.976;2023-08-31T02:07:40;86878.78;;;9.43;63.09
81151;BME280;70629;-26.026;27.976;2023-08-31T02:09:15;86863.16;;;9.40;63.47
81151;BME280;70629;-26.026;27.976;2023-08-31T02:10:50;86871.75;;;9.03;63.97
81151;BME280;70629;-26.026;27.976;2023-08-31T02:12:25;86874.50;;;8.82;64.57
81151;BME280;70629;-26.026;27.976;2023-08-31T02:14:00;86869.09;;;9.27;63.28
81151;BME280;70629;-26.026;27.976;2023-08-31T02:15:38;86869.00;;;9.36;62.75
81151;BME280;70629;-26.026;27.976;2023-08-31T02:17:13;86871.56;;;8.78;65.04
81151;BME280;70629;-26.026;27.976;2023-08-31T02:18:48;86877.31;;;8.51;65.50
81151;BME280;70629;-26.026;27.976;2023-08-31T02:20:22;86873.88;;;8.39;65.62
81151;BME280;70629;-26.026;27.976;2023-08-31T02:21:57;86873.78;;;8.70;65.08
81151;BME280;70629;-26.026;27.976;2023-08-31T02:23:32;86879.22;;;8.60;64.88
81151;BME280;70629;-26.026;27.976;2023-08-31T02:25:07;86878.47;;;8.48;65.14
81151;BME280;70629;-26.026;27.976;2023-08-31T02:26:42;86877.34;;;8.30;66.21
81151;BME280;70629;-26.026;27.976;2023-08-31T02:28:17;86874.91;;;8.34;65.82
81151;BME280;70629;-26.026;27.976;2023-08-31T02:29:53;86874.13;;;8.43;66.00
81151;BME280;70629;-26.026;27.976;2023-08-31T02:31:28;86882.59;;;8.61;65.41
81151;BME280;70629;-26.026;27.976;2023-08-31T02:33:04;86876.28;;;8.56;66.07
81151;BME280;70629;-26.026;27.976;2023-08-31T02:34:39;86874.47;;;8.70;65.66
81151;BME280;70629;-26.026;27.976;2023-08-31T02:36:13;86874.78;;;8.98;64.60
81151;BME280;70629;-26.026;27.976;2023-08-31T02:37:48;86872.16;;;8.76;65.35
81151;BME280;70629;-26.026;27.976;2023-08-31T02:39:23;86880.88;;;8.65;65.95
81151;BME280;70629;-26.026;27.976;2023-08-31T02:40:58;86875.06;;;8.80;65.17
81151;BME280;70629;-26.026;27.976;2023-08-31T02:42:33;86878.13;;;8.87;64.58
81151;BME280;70629;-26.026;27.976;2023-08-31T02:44:08;86881.38;;;8.52;65.67
81151;BME280;70629;-26.026;27.976;2023-08-31T02:45:42;86875.13;;;8.59;65.10
81151;BME280;70629;-26.026;27.976;2023-08-31T02:47:18;86878.97;;;9.01;64.32
81151;BME280;70629;-26.026;27.976;2023-08-31T02:48:52;86873.97;;;9.07;64.45
81151;BME280;70629;-26.026;27.976;2023-08-31T02:50:27;86872.38;;;8.80;65.61
81151;BME280;70629;-26.026;27.976;2023-08-31T02:52:01;86869.75;;;8.92;65.30
81151;BME280;70629;-26.026;27.976;2023-08-31T02:53:37;86872.66;;;8.85;65.12
81151;BME280;70629;-26.026;27.976;2023-08-31T02:55:12;86869.22;;;8.72;65.28
81151;BME280;70629;-26.026;27.976;2023-08-31T02:56:46;86879.47;;;8.64;65.58
81151;BME280;70629;-26.026;27.976;2023-08-31T02:58:21;86882.16;;;8.76;64.63
81151;BME280;70629;-26.026;27.976;2023-08-31T02:59:56;86876.59;;;8.84;65.52
81151;BME280;70629;-26.026;27.976;2023-08-31T03:01:31;86870.06;;;8.87;65.53
81151;BME280;70629;-26.026;27.976;2023-08-31T03:03:06;86871.28;;;9.07;65.30
81151;BME280;70629;-26.026;27.976;2023-08-31T03:04:43;86869.59;;;8.78;64.79
81151;BME280;70629;-26.026;27.976;2023-08-31T03:06:18;86868.41;;;8.37;66.20
81151;BME280;70629;-26.026;27.976;2023-08-31T03:07:53;86869.44;;;8.32;66.45
81151;BME280;70629;-26.026;27.976;2023-08-31T03:09:28;86873.00;;;8.58;65.04
81151;BME280;70629;-26.026;27.976;2023-08-31T03:11:03;86875.78;;;8.27;65.36
81151;BME280;70629;-26.026;27.976;2023-08-31T03:12:39;86880.91;;;8.02;66.86
81151;BME280;70629;-26.026;27.976;2023-08-31T03:14:13;86874.66;;;8.30;65.76
81151;BME280;70629;-26.026;27.976;2023-08-31T03:15:48;86874.94;;;8.24;66.27
81151;BME280;70629;-26.026;27.976;2023-08-31T03:17:22;86873.50;;;8.12;66.35
81151;BME280;70629;-26.026;27.976;2023-08-31T03:18:57;86874.13;;;8.22;65.88
81151;BME280;70629;-26.026;27.976;2023-08-31T03:20:32;86874.06;;;8.10;66.21
81151;BME280;70629;-26.026;27.976;2023-08-31T03:22:06;86876.44;;;8.16;66.24
81151;BME280;70629;-26.026;27.976;2023-08-31T03:23:41;86872.34;;;8.15;66.86
81151;BME280;70629;-26.026;27.976;2023-08-31T03:25:16;86871.84;;;8.28;65.93
81151;BME280;70629;-26.026;27.976;2023-08-31T03:26:51;86867.63;;;8.25;66.78
81151;BME280;70629;-26.026;27.976;2023-08-31T03:28:26;86866.63;;;8.30;66.28
81151;BME280;70629;-26.026;27.976;2023-08-31T03:30:01;86871.38;;;8.10;66.85
81151;BME280;70629;-26.026;27.976;2023-08-31T03:31:37;86872.47;;;8.17;66.50
81151;BME280;70629;-26.026;27.976;2023-08-31T03:33:12;86873.22;;;8.29;66.47
81151;BME280;70629;-26.026;27.976;2023-08-31T03:34:48;86872.84;;;8.02;67.12
81151;BME280;70629;-26.026;27.976;2023-08-31T03:36:22;86872.88;;;7.80;68.10
81151;BME280;70629;-26.026;27.976;2023-08-31T03:37:58;86871.66;;;7.93;67.56
81151;BME280;70629;-26.026;27.976;2023-08-31T03:39:33;86875.47;;;8.11;67.72
81151;BME280;70629;-26.026;27.976;2023-08-31T03:41:08;86872.94;;;8.13;67.87
81151;BME280;70629;-26.026;27.976;2023-08-31T03:42:43;86875.09;;;8.05;67.97
81151;BME280;70629;-26.026;27.976;2023-08-31T03:44:19;86877.72;;;7.93;68.26
81151;BME280;70629;-26.026;27.976;2023-08-31T03:45:55;86885.94;;;7.86;67.93
81151;BME280;70629;-26.026;27.976;2023-08-31T03:47:30;86889.63;;;7.81;68.07
81151;BME280;70629;-26.026;27.976;2023-08-31T03:49:05;86881.13;;;7.63;69.09
81151;BME280;70629;-26.026;27.976;2023-08-31T03:50:40;86885.50;;;7.59;69.13
81151;BME280;70629;-26.026;27.976;2023-08-31T03:52:15;86885.09;;;7.62;69.69
81151;BME280;70629;-26.026;27.976;2023-08-31T03:53:50;86886.09;;;7.78;68.38
81151;BME280;70629;-26.026;27.976;2023-08-31T03:55:24;86890.91;;;7.80;68.33
81151;BME280;70629;-26.026;27.976;2023-08-31T03:56:59;86895.19;;;7.94;68.25
81151;BME280;70629;-26.026;27.976;2023-08-31T03:58:34;86890.22;;;8.22;67.53
81151;BME280;70629;-26.026;27.976;2023-08-31T04:00:09;86896.50;;;8.05;67.13
81151;BME280;70629;-26.026;27.976;2023-08-31T04:01:46;86899.44;;;7.88;68.24
81151;BME280;70629;-26.026;27.976;2023-08-31T04:03:22;86899.38;;;7.98;67.74
81151;BME280;70629;-26.026;27.976;2023-08-31T04:04:58;86901.00;;;7.60;69.15
81151;BME280;70629;-26.026;27.976;2023-08-31T04:06:32;86902.63;;;7.75;68.10
81151;BME280;70629;-26.026;27.976;2023-08-31T04:08:07;86899.38;;;7.45;69.66
81151;BME280;70629;-26.026;27.976;2023-08-31T04:09:42;86906.09;;;7.56;68.83
81151;BME280;70629;-26.026;27.976;2023-08-31T04:11:17;86908.81;;;7.46;69.13
81151;BME280;70629;-26.026;27.976;2023-08-31T04:12:52;86907.91;;;7.54;69.37
81151;BME280;70629;-26.026;27.976;2023-08-31T04:14:27;86920.06;;;7.45;69.50
81151;BME280;70629;-26.026;27.976;2023-08-31T04:16:03;86906.25;;;7.79;67.98
81151;BME280;70629;-26.026;27.976;2023-08-31T04:17:38;86907.94;;;7.84;67.88
81151;BME280;70629;-26.026;27.976;2023-08-31T04:19:13;86915.44;;;7.76;68.20
81151;BME280;70629;-26.026;27.976;2023-08-31T04:20:53;86906.09;;;7.56;68.96
81151;BME280;70629;-26.026;27.976;2023-08-31T04:22:28;86918.59;;;7.63;68.94
81151;BME280;70629;-26.026;27.976;2023-08-31T04:24:02;86911.88;;;7.83;68.34
81151;BME280;70629;-26.026;27.976;2023-08-31T04:25:37;86922.03;;;7.85;68.13
81151;BME280;70629;-26.026;27.976;2023-08-31T04:27:12;86924.94;;;7.58;69.48
81151;BME280;70629;-26.026;27.976;2023-08-31T04:28:47;86919.59;;;7.58;69.22
81151;BME280;70629;-26.026;27.976;2023-08-31T04:30:21;86927.81;;;7.81;68.77
81151;BME280;70629;-26.026;27.976;2023-08-31T04:31:56;86928.50;;;7.82;68.86
81151;BME280;70629;-26.026;27.976;2023-08-31T04:33:37;86926.06;;;7.96;67.84
81151;BME280;70629;-26.026;27.976;2023-08-31T04:35:13;86930.66;;;7.43;69.84
81151;BME280;70629;-26.026;27.976;2023-08-31T04:36:48;86929.63;;;7.58;69.40
81151;BME280;70629;-26.026;27.976;2023-08-31T04:38:22;86930.53;;;7.41;70.09
81151;BME280;70629;-26.026;27.976;2023-08-31T04:39:57;86927.31;;;7.33;69.67
81151;BME280;70629;-26.026;27.976;2023-08-31T04:41:32;86928.28;;;7.37;69.90
81151;BME280;70629;-26.026;27.976;2023-08-31T04:43:07;86930.53;;;7.41;69.17
81151;BME280;70629;-26.026;27.976;2023-08-31T04:44:42;86930.47;;;7.50;69.48
81151;BME280;70629;-26.026;27.976;2023-08-31T04:46:17;86924.66;;;7.64;69.01
81151;BME280;70629;-26.026;27.976;2023-08-31T04:47:52;86925.75;;;7.70;68.57
81151;BME280;70629;-26.026;27.976;2023-08-31T04:49:27;86932.38;;;7.69;69.31
81151;BME280;70629;-26.026;27.976;2023-08-31T04:51:02;86926.19;;;7.67;69.53
81151;BME280;70629;-26.026;27.976;2023-08-31T04:52:40;86935.44;;;7.75;70.64
81151;BME280;70629;-26.026;27.976;2023-08-31T04:54:15;86940.47;;;8.12;69.18
81151;BME280;70629;-26.026;27.976;2023-08-31T04:55:50;86938.69;;;8.05;69.02
81151;BME280;70629;-26.026;27.976;2023-08-31T04:57:25;86938.69;;;8.05;69.34
81151;BME280;70629;-26.026;27.976;2023-08-31T04:59:00;86940.97;;;7.99;69.61
81151;BME280;70629;-26.026;27.976;2023-08-31T05:00:36;86943.94;;;8.24;69.12
81151;BME280;70629;-26.026;27.976;2023-08-31T05:02:11;86945.25;;;8.13;69.65
81151;BME280;70629;-26.026;27.976;2023-08-31T05:03:45;86945.72;;;8.31;69.47
81151;BME280;70629;-26.026;27.976;2023-08-31T05:05:20;86939.91;;;8.34;69.47
81151;BME280;70629;-26.026;27.976;2023-08-31T05:06:56;86947.06;;;8.42;69.12
81151;BME280;70629;-26.026;27.976;2023-08-31T05:08:31;86941.00;;;8.62;68.16
81151;BME280;70629;-26.026;27.976;2023-08-31T05:10:07;86945.22;;;8.44;69.28
81151;BME280;70629;-26.026;27.976;2023-08-31T05:11:42;86945.47;;;8.48;68.92
81151;BME280;70629;-26.026;27.976;2023-08-31T05:13:17;86951.44;;;8.79;68.04
81151;BME280;70629;-26.026;27.976;2023-08-31T05:14:51;86950.44;;;8.85;67.43
81151;BME280;70629;-26.026;27.976;2023-08-31T05:16:26;86953.81;;;8.85;67.91
81151;BME280;70629;-26.026;27.976;2023-08-31T05:18:01;86959.41;;;8.89;68.07
81151;BME280;70629;-26.026;27.976;2023-08-31T05:19:36;86962.13;;;9.01;67.21
81151;BME280;70629;-26.026;27.976;2023-08-31T05:21:10;86960.19;;;9.13;66.66
81151;BME280;70629;-26.026;27.976;2023-08-31T05:22:45;86970.56;;;9.07;66.52
81151;BME280;70629;-26.026;27.976;2023-08-31T05:24:21;86969.94;;;8.97;67.91
81151;BME280;70629;-26.026;27.976;2023-08-31T05:25:56;86976.53;;;9.17;66.43
81151;BME280;70629;-26.026;27.976;2023-08-31T05:27:31;86972.50;;;9.39;65.87
81151;BME280;70629;-26.026;27.976;2023-08-31T05:29:06;86965.66;;;9.59;65.15
81151;BME280;70629;-26.026;27.976;2023-08-31T05:30:50;86973.59;;;9.46;66.28
81151;BME280;70629;-26.026;27.976;2023-08-31T05:32:28;86969.34;;;9.31;67.02
81151;BME280;70629;-26.026;27.976;2023-08-31T05:34:04;86968.47;;;9.61;65.89
81151;BME280;70629;-26.026;27.976;2023-08-31T05:35:39;86970.44;;;9.61;65.69
81151;BME280;70629;-26.026;27.976;2023-08-31T05:37:13;86963.59;;;9.69;65.64
81151;BME280;70629;-26.026;27.976;2023-08-31T05:38:51;86971.41;;;9.77;65.57
81151;BME280;70629;-26.026;27.976;2023-08-31T05:40:26;86966.75;;;10.01;65.04
81151;BME280;70629;-26.026;27.976;2023-08-31T05:42:00;86976.69;;;9.87;65.00
81151;BME280;70629;-26.026;27.976;2023-08-31T05:43:36;86967.44;;;9.90;65.24
81151;BME280;70629;-26.026;27.976;2023-08-31T05:45:14;86968.59;;;9.98;65.33
81151;BME280;70629;-26.026;27.976;2023-08-31T05:46:49;86976.09;;;10.00;66.40
81151;BME280;70629;-26.026;27.976;2023-08-31T05:48:23;86972.41;;;10.17;64.37
81151;BME280;70629;-26.026;27.976;2023-08-31T05:49:58;86972.81;;;10.36;64.68
81151;BME280;70629;-26.026;27.976;2023-08-31T05:51:34;86976.91;;;10.37;64.71
81151;BME280;70629;-26.026;27.976;2023-08-31T05:53:09;86977.97;;;10.44;65.23
81151;BME280;70629;-26.026;27.976;2023-08-31T05:54:45;86984.47;;;10.64;63.15
81151;BME280;70629;-26.026;27.976;2023-08-31T05:56:20;86991.16;;;10.63;64.10
81151;BME280;70629;-26.026;27.976;2023-08-31T05:57:55;86985.06;;;10.63;63.04
81151;BME280;70629;-26.026;27.976;2023-08-31T05:59:29;86989.25;;;10.77;61.18
81151;BME280;70629;-26.026;27.976;2023-08-31T06:01:04;86988.41;;;10.86;63.75
81151;BME280;70629;-26.026;27.976;2023-08-31T06:02:39;86980.66;;;10.92;62.15
81151;BME280;70629;-26.026;27.976;2023-08-31T06:04:15;86989.19;;;11.00;60.69
81151;BME280;70629;-26.026;27.976;2023-08-31T06:05:50;86989.78;;;10.99;60.05
81151;BME280;70629;-26.026;27.976;2023-08-31T06:07:25;86981.63;;;11.22;59.58
81151;BME280;70629;-26.026;27.976;2023-08-31T06:09:00;86989.59;;;11.20;60.03
81151;BME280;70629;-26.026;27.976;2023-08-31T06:10:35;86985.81;;;11.25;60.40
81151;BME280;70629;-26.026;27.976;2023-08-31T06:12:10;86984.53;;;11.52;58.28
81151;BME280;70629;-26.026;27.976;2023-08-31T06:13:45;86988.31;;;11.47;57.24
81151;BME280;70629;-26.026;27.976;2023-08-31T06:15:19;86984.53;;;11.52;56.82
81151;BME280;70629;-26.026;27.976;2023-08-31T06:16:54;86988.47;;;11.62;57.72
81151;BME280;70629;-26.026;27.976;2023-08-31T06:18:29;86983.19;;;11.64;57.63
81151;BME280;70629;-26.026;27.976;2023-08-31T06:20:04;86987.72;;;11.73;57.69
81151;BME280;70629;-26.026;27.976;2023-08-31T06:21:40;86988.25;;;11.83;57.36
81151;BME280;70629;-26.026;27.976;2023-08-31T06:23:15;86985.34;;;11.79;59.75
81151;BME280;70629;-26.026;27.976;2023-08-31T06:24:50;86991.09;;;11.99;55.39
81151;BME280;70629;-26.026;27.976;2023-08-31T06:26:26;86987.84;;;12.14;54.51
81151;BME280;70629;-26.026;27.976;2023-08-31T06:28:00;86984.16;;;12.21;54.62
81151;BME280;70629;-26.026;27.976;2023-08-31T06:29:35;86983.16;;;12.28;55.17
81151;BME280;70629;-26.026;27.976;2023-08-31T06:31:10;86988.56;;;12.28;55.67
81151;BME280;70629;-26.026;27.976;2023-08-31T06:32:45;86987.44;;;12.33;55.58
81151;BME280;70629;-26.026;27.976;2023-08-31T06:34:21;86982.56;;;12.44;54.12
81151;BME280;70629;-26.026;27.976;2023-08-31T06:35:56;86983.25;;;12.58;54.63
81151;BME280;70629;-26.026;27.976;2023-08-31T06:37:31;86985.75;;;12.67;55.27
81151;BME280;70629;-26.026;27.976;2023-08-31T06:39:06;86985.75;;;12.67;54.59
81151;BME280;70629;-26.026;27.976;2023-08-31T06:40:42;86980.16;;;12.77;54.45
81151;BME280;70629;-26.026;27.976;2023-08-31T06:42:20;86980.94;;;12.93;53.56
81151;BME280;70629;-26.026;27.976;2023-08-31T06:43:57;86974.34;;;12.96;54.21
81151;BME280;70629;-26.026;27.976;2023-08-31T06:45:32;86973.53;;;13.07;53.83
81151;BME280;70629;-26.026;27.976;2023-08-31T06:47:08;86973.13;;;13.27;53.43
81151;BME280;70629;-26.026;27.976;2023-08-31T06:48:44;86976.28;;;13.37;53.54
81151;BME280;70629;-26.026;27.976;2023-08-31T06:50:19;86974.94;;;13.51;53.36
81151;BME280;70629;-26.026;27.976;2023-08-31T06:51:54;86972.03;;;13.47;52.89
81151;BME280;70629;-26.026;27.976;2023-08-31T06:53:30;86975.63;;;13.52;53.08
81151;BME280;70629;-26.026;27.976;2023-08-31T06:55:08;86968.91;;;13.82;52.83
81151;BME280;70629;-26.026;27.976;2023-08-31T06:56:45;86974.59;;;13.88;52.20
81151;BME280;70629;-26.026;27.976;2023-08-31T06:58:20;86974.78;;;13.92;51.51
81151;BME280;70629;-26.026;27.976;2023-08-31T06:59:55;86977.31;;;14.04;51.85
81151;BME280;70629;-26.026;27.976;2023-08-31T07:01:30;86970.53;;;14.34;51.51
81151;BME280;70629;-26.026;27.976;2023-08-31T07:03:07;86972.03;;;14.37;50.77
81151;BME280;70629;-26.026;27.976;2023-08-31T07:04:42;86964.84;;;14.75;50.12
81151;BME280;70629;-26.026;27.976;2023-08-31T07:06:17;86968.44;;;14.64;50.45
81151;BME280;70629;-26.026;27.976;2023-08-31T07:07:53;86967.50;;;14.58;50.66
81151;BME280;70629;-26.026;27.976;2023-08-31T07:09:28;86957.63;;;14.48;50.07
81151;BME280;70629;-26.026;27.976;2023-08-31T07:11:03;86967.09;;;14.97;49.68
81151;BME280;70629;-26.026;27.976;2023-08-31T07:12:38;86964.44;;;14.99;48.98
81151;BME280;70629;-26.026;27.976;2023-08-31T07:14:13;86968.75;;;15.21;49.12
81151;BME280;70629;-26.026;27.976;2023-08-31T07:15:48;86967.25;;;15.01;48.79
81151;BME280;70629;-26.026;27.976;2023-08-31T07:17:24;86968.41;;;14.96;48.52
81151;BME280;70629;-26.026;27.976;2023-08-31T07:18:59;86963.69;;;15.29;48.32
81151;BME280;70629;-26.026;27.976;2023-08-31T07:20:34;86966.81;;;15.93;46.77
81151;BME280;70629;-26.026;27.976;2023-08-31T07:22:09;86961.59;;;16.16;47.22
81151;BME280;70629;-26.026;27.976;2023-08-31T07:23:44;86965.34;;;16.07;47.13
81151;BME280;70629;-26.026;27.976;2023-08-31T07:25:19;86967.81;;;16.19;47.31
81151;BME280;70629;-26.026;27.976;2023-08-31T07:26:54;86964.34;;;16.74;45.10
81151;BME280;70629;-26.026;27.976;2023-08-31T07:28:29;86966.88;;;16.50;44.54
81151;BME280;70629;-26.026;27.976;2023-08-31T07:30:04;86963.09;;;16.77;46.96
81151;BME280;70629;-26.026;27.976;2023-08-31T07:31:39;86961.69;;;17.15;44.48
81151;BME280;70629;-26.026;27.976;2023-08-31T07:33:15;86964.28;;;16.72;45.26
81151;BME280;70629;-26.026;27.976;2023-08-31T07:35:03;86964.72;;;17.45;43.74
81151;BME280;70629;-26.026;27.976;2023-08-31T07:36:39;86956.13;;;17.52;43.48
81151;BME280;70629;-26.026;27.976;2023-08-31T07:38:14;86963.31;;;17.64;42.07
81151;BME280;70629;-26.026;27.976;2023-08-31T07:39:49;86967.56;;;17.49;43.23
81151;BME280;70629;-26.026;27.976;2023-08-31T07:41:24;86962.03;;;17.47;43.26
81151;BME280;70629;-26.026;27.976;2023-08-31T07:42:59;86967.66;;;17.73;43.71
81151;BME280;70629;-26.026;27.976;2023-08-31T07:44:34;86961.91;;;18.06;41.34
81151;BME280;70629;-26.026;27.976;2023-08-31T07:46:09;86961.13;;;18.04;42.46
81151;BME280;70629;-26.026;27.976;2023-08-31T07:47:44;86961.34;;;18.33;41.34
81151;BME280;70629;-26.026;27.976;2023-08-31T07:49:19;86962.03;;;18.10;40.66
81151;BME280;70629;-26.026;27.976;2023-08-31T07:50:54;86956.72;;;18.38;42.04
81151;BME280;70629;-26.026;27.976;2023-08-31T07:52:30;86961.59;;;18.65;40.91
81151;BME280;70629;-26.026;27.976;2023-08-31T07:54:05;86959.38;;;18.83;39.55
81151;BME280;70629;-26.026;27.976;2023-08-31T07:55:40;86951.78;;;18.80;40.23
81151;BME280;70629;-26.026;27.976;2023-08-31T07:57:15;86956.09;;;18.87;42.41
81151;BME280;70629;-26.026;27.976;2023-08-31T07:58:50;86957.31;;;18.58;40.02
81151;BME280;70629;-26.026;27.976;2023-08-31T08:00:25;86946.34;;;18.80;39.90
81151;BME280;70629;-26.026;27.976;2023-08-31T08:02:00;86954.69;;;18.38;39.99
81151;BME280;70629;-26.026;27.976;2023-08-31T08:03:35;86950.44;;;19.05;40.14
81151;BME280;70629;-26.026;27.976;2023-08-31T08:05:10;86947.56;;;18.75;41.38
81151;BME280;70629;-26.026;27.976;2023-08-31T08:06:45;86947.44;;;18.95;41.03
81151;BME280;70629;-26.026;27.976;2023-08-31T08:08:20;86941.25;;;19.44;39.09
81151;BME280;70629;-26.026;27.976;2023-08-31T08:09:55;86945.31;;;19.70;39.21
81151;BME280;70629;-26.026;27.976;2023-08-31T08:11:31;86939.25;;;19.46;38.31
81151;BME280;70629;-26.026;27.976;2023-08-31T08:13:06;86935.44;;;19.85;37.68
81151;BME280;70629;-26.026;27.976;2023-08-31T08:14:41;86934.91;;;19.93;37.94
81151;BME280;70629;-26.026;27.976;2023-08-31T08:16:16;86936.22;;;19.62;38.96
81151;BME280;70629;-26.026;27.976;2023-08-31T08:17:51;86937.56;;;20.19;39.09
81151;BME280;70629;-26.026;27.976;2023-08-31T08:19:28;86928.44;;;20.08;38.62
81151;BME280;70629;-26.026;27.976;2023-08-31T08:21:03;86930.59;;;19.54;38.21
81151;BME280;70629;-26.026;27.976;2023-08-31T08:22:37;86928.06;;;20.22;38.07
81151;BME280;70629;-26.026;27.976;2023-08-31T08:24:12;86926.50;;;20.42;36.99
81151;BME280;70629;-26.026;27.976;2023-08-31T08:25:47;86931.78;;;20.66;34.73